Terminal Aerodrome Forecast
Issued by NWS

Home | Current Version | Previous Version | Graphics & Text | Print | Product List | Glossary On
Versions: 1 2 3 4 5 6 7 8 9 10 11 12 13
000
FTUS43 KBIS 171135
TAFMOT
TAF
KMOT 171135Z 1712/1812 22011KT P6SM SKC WS020/27035KT
     FM171500 23013G21KT P6SM SKC
     FM180000 21011KT P6SM SKC WS020/24035KT
     FM180400 20017G26KT P6SM FEW150 FEW250 WS020/25045KT
     FM180800 25022G31KT P6SM FEW140 FEW250 WS020/28045KT=

USA.gov is the U.S. government's official web portal to all federal, state and local government web resources and services.